Time;durP1;ratioP1;P1;durP2;ratioP2;P2;SDS_P1;SDS_P2;PMS_P1;PMS_P2;Temp;Humidity;BMP_temperature;BMP_pressure;BME280_temperature;BME280_humidity;BME280_pressure;Samples;Min_cycle;Max_cycle;Signal;HPM_P1;HPM_P2
2022/06/14 00:02:33;;;;;;;4.53;2.45;;;;;;;19.24;55.03;96106.31;5082099;28;20239;-79
2022/06/14 00:04:59;;;;;;;3.35;2.40;;;;;;;19.32;54.77;96110.44;5080851;28;20242;-79
2022/06/14 00:07:25;;;;;;;3.55;2.80;;;;;;;19.39;54.68;96103.34;5082004;28;20201;-79
2022/06/14 00:09:53;;;;;;;3.78;2.50;;;;;;;19.35;54.35;96107.41;5066710;28;20251;-80
2022/06/14 00:12:19;;;;;;;5.78;2.90;;;;;;;19.32;54.66;96110.44;5059797;28;20257;-79
2022/06/14 00:14:46;;;;;;;3.25;2.70;;;;;;;19.25;54.74;96107.91;5074697;28;20192;-79
2022/06/14 00:17:12;;;;;;;2.50;2.30;;;;;;;19.34;54.32;96108.41;5081914;28;20220;-79
2022/06/14 00:19:39;;;;;;;2.70;2.50;;;;;;;19.42;54.47;96113.38;5068373;28;20198;-79
2022/06/14 00:22:07;;;;;;;2.72;2.38;;;;;;;19.45;55.13;96109.50;5059723;28;20271;-78
2022/06/14 00:24:34;;;;;;;4.40;2.70;;;;;;;19.50;54.64;96115.69;5072001;28;20291;-79
2022/06/14 00:27:01;;;;;;;4.57;3.30;;;;;;;19.49;54.32;96110.66;5081858;28;20262;-78
2022/06/14 00:29:28;;;;;;;3.13;2.65;;;;;;;19.44;54.58;96103.47;5070261;28;20217;-79
2022/06/14 00:31:55;;;;;;;2.88;2.50;;;;;;;19.45;54.64;96107.69;5059210;28;20222;-79
2022/06/14 00:34:21;;;;;;;4.75;2.88;;;;;;;19.50;54.30;96110.47;5069823;28;20223;-79
2022/06/14 00:36:52;;;;;;;3.22;2.92;;;;;;;19.40;54.74;96112.78;5081643;28;20672;-79
2022/06/14 00:39:19;;;;;;;3.20;2.72;;;;;;;19.37;54.93;96108.00;5066705;28;20198;-79
2022/06/14 00:41:47;;;;;;;3.97;2.90;;;;;;;19.32;55.21;96107.84;5060150;28;20287;-79
2022/06/14 00:44:17;;;;;;;3.00;2.70;;;;;;;19.25;55.02;96107.91;5052930;28;20218;-79
2022/06/14 00:46:52;;;;;;;3.50;2.75;;;;;;;19.14;55.97;96106.03;5060689;28;20237;-79
2022/06/14 00:49:23;;;;;;;6.25;3.15;;;;;;;19.08;55.68;96103.47;5046688;28;20216;-79
2022/06/14 00:51:54;;;;;;;8.00;3.17;;;;;;;18.94;56.21;96105.44;5040283;28;20716;-79
2022/06/14 00:54:26;;;;;;;5.15;2.85;;;;;;;18.95;57.20;96105.22;5054314;28;20197;-79
2022/06/14 00:56:56;;;;;;;2.92;2.70;;;;;;;18.97;56.67;96097.97;5062366;28;20208;-79
2022/06/14 00:59:29;;;;;;;4.07;2.97;;;;;;;18.96;56.76;96104.19;5048144;28;20201;-78
2022/06/14 01:02:03;;;;;;;4.20;2.97;;;;;;;18.91;56.68;96103.25;5040726;28;20289;-78
2022/06/14 01:04:32;;;;;;;5.65;3.10;;;;;;;18.96;56.51;96098.19;5045613;28;20740;-79
2022/06/14 01:07:03;;;;;;;3.58;3.00;;;;;;;18.88;56.80;96101.06;5041237;28;20209;-79
2022/06/14 01:09:35;;;;;;;3.00;2.70;;;;;;;18.68;58.08;96109.06;5055104;28;20217;-79
2022/06/14 01:12:05;;;;;;;3.10;2.78;;;;;;;18.68;58.07;96103.06;5058972;28;20225;-79
2022/06/14 01:14:42;;;;;;;4.63;2.88;;;;;;;18.69;58.07;96104.66;5045845;28;20210;-79
2022/06/14 01:17:11;;;;;;;4.85;3.03;;;;;;;18.76;57.27;96100.97;5061150;28;20700;-79
2022/06/14 01:19:40;;;;;;;4.88;3.13;;;;;;;18.76;57.67;96106.19;5045410;28;20269;-79
2022/06/14 01:22:26;;;;;;;4.22;3.20;;;;;;;18.65;58.42;96099.09;5039052;28;20309;-78
2022/06/14 01:24:53;;;;;;;3.58;3.03;;;;;;;18.61;58.05;96101.31;5056638;28;20205;-79
2022/06/14 01:27:21;;;;;;;3.28;2.97;;;;;;;18.67;58.27;96094.44;5060266;28;20244;-78
2022/06/14 01:29:57;;;;;;;3.10;2.90;;;;;;;18.58;58.55;96096.50;5042794;28;20240;-79
2022/06/14 01:32:28;;;;;;;5.35;2.75;;;;;;;18.47;59.04;96096.41;5038883;28;20352;-79
2022/06/14 01:34:58;;;;;;;4.88;2.78;;;;;;;18.53;58.54;96098.94;5057055;28;20193;-78
2022/06/14 01:37:26;;;;;;;3.55;2.80;;;;;;;18.46;59.01;96092.19;5060203;28;20692;-79
2022/06/14 01:39:55;;;;;;;5.80;2.70;;;;;;;18.43;58.99;96097.81;5041216;28;20190;-79
2022/06/14 01:42:26;;;;;;;4.03;3.22;;;;;;;18.37;58.98;96085.63;5038664;28;20234;-79
2022/06/14 01:45:02;;;;;;;3.45;2.88;;;;;;;18.22;59.95;96094.56;5059057;28;20599;-79
2022/06/14 01:47:36;;;;;;;4.40;2.80;;;;;;;18.18;60.00;96093.38;5058937;28;20239;-78
2022/06/14 01:53:15;;;;;;;3.35;2.97;;;;;;;18.33;60.23;96090.47;5042953;28;20726;-80
2022/06/14 01:55:46;;;;;;;3.15;2.83;;;;;;;18.33;60.32;96092.28;5059919;28;20197;-78
2022/06/14 01:58:22;;;;;;;3.22;2.92;;;;;;;18.39;60.22;96089.63;5055445;28;20198;-79
2022/06/14 02:00:54;;;;;;;4.53;3.00;;;;;;;18.35;60.34;96085.84;5052213;28;20648;-79
2022/06/14 02:06:18;;;;;;;3.17;2.83;;;;;;;18.25;60.04;96094.16;5060055;28;20209;-79
2022/06/14 02:08:52;;;;;;;3.45;3.10;;;;;;;18.18;60.55;96088.19;5058945;28;20194;-80
2022/06/14 02:11:24;;;;;;;4.35;2.97;;;;;;;18.10;60.54;96087.63;5059387;28;20267;-79
2022/06/14 02:13:54;;;;;;;3.50;2.97;;;;;;;18.12;60.56;96091.63;5057911;28;20225;-79
2022/06/14 02:16:28;;;;;;;4.82;3.30;;;;;;;18.05;61.25;96088.28;5060522;28;20202;-79
2022/06/14 02:18:59;;;;;;;3.63;2.70;;;;;;;18.08;60.47;96090.47;5045107;28;20217;-78
2022/06/14 02:21:32;;;;;;;3.35;2.80;;;;;;;18.04;60.32;96089.28;5040009;28;20305;-79
2022/06/14 02:24:05;;;;;;;4.07;2.90;;;;;;;18.00;60.71;96088.09;5055140;28;20221;-79
2022/06/14 02:26:37;;;;;;;5.80;3.00;;;;;;;18.07;60.15;96088.06;5060433;28;20212;-78
2022/06/14 02:29:10;;;;;;;2.85;2.58;;;;;;;18.09;60.59;96091.25;5043862;28;20190;-80
2022/06/14 02:31:41;;;;;;;3.92;2.97;;;;;;;18.03;60.80;96082.47;5038816;28;20218;-79
2022/06/14 02:34:13;;;;;;;3.88;2.88;;;;;;;17.99;60.81;96090.91;5055180;28;20251;-78
2022/06/14 02:36:44;;;;;;;4.32;3.10;;;;;;;17.97;61.13;96087.72;5059180;28;20209;-78
2022/06/14 02:39:15;;;;;;;4.35;3.30;;;;;;;17.97;60.93;96080.69;5041025;28;20240;-78
2022/06/14 02:41:45;;;;;;;3.97;3.25;;;;;;;17.92;61.11;96083.94;5050391;28;20708;-78
2022/06/14 02:44:17;;;;;;;3.47;2.97;;;;;;;17.97;60.37;96082.50;5042013;28;20673;-79
2022/06/14 02:46:48;;;;;;;3.10;2.80;;;;;;;17.95;60.75;96080.09;5051230;28;20235;-79
2022/06/14 02:49:20;;;;;;;4.30;2.80;;;;;;;17.89;61.11;96078.34;5059221;28;20243;-79
2022/06/14 02:51:51;;;;;;;4.03;3.00;;;;;;;17.93;61.00;96087.31;5044827;28;20590;-78
2022/06/14 02:54:28;;;;;;;3.17;2.88;;;;;;;17.86;61.30;96087.38;5056436;28;20227;-79
2022/06/14 02:57:00;;;;;;;3.78;2.90;;;;;;;17.75;60.44;96077.63;5049596;28;20248;-79
2022/06/14 02:59:30;;;;;;;6.32;3.20;;;;;;;17.76;60.40;96086.22;5046139;28;20194;-80
2022/06/14 03:02:02;;;;;;;3.47;2.90;;;;;;;17.73;60.63;96084.84;5061661;28;20275;-79
2022/06/14 03:04:34;;;;;;;3.63;2.83;;;;;;;17.73;60.57;96082.22;5055824;28;20209;-81
2022/06/14 03:07:07;;;;;;;3.15;2.70;;;;;;;17.67;61.03;96084.88;5057633;28;20201;-81
2022/06/14 03:09:37;;;;;;;4.28;3.20;;;;;;;17.68;60.66;96087.28;5036671;28;20210;-81
2022/06/14 03:12:15;;;;;;;4.05;2.70;;;;;;;17.64;60.75;96078.28;5050596;28;20316;-81
2022/06/14 03:14:54;;;;;;;4.43;3.20;;;;;;;17.48;61.14;96086.56;5057371;28;20209;-81
2022/06/14 03:17:27;;;;;;;3.65;3.10;;;;;;;17.41;61.49;96090.97;5043566;28;20201;-81
2022/06/14 03:20:05;;;;;;;5.35;3.05;;;;;;;17.41;62.16;96086.56;5057187;28;20312;-81
2022/06/14 03:22:50;;;;;;;4.25;2.97;;;;;;;17.38;62.36;96088.78;5038537;28;20233;-81
2022/06/14 03:25:26;;;;;;;4.85;3.20;;;;;;;17.38;62.15;96089.56;5037403;28;20275;-81
2022/06/14 03:27:57;;;;;;;3.80;2.92;;;;;;;17.42;62.26;96085.56;5039050;28;20600;-81
2022/06/14 03:30:28;;;;;;;5.18;3.22;;;;;;;17.47;61.83;96090.16;5035655;28;20280;-81
2022/06/14 03:33:02;;;;;;;10.30;3.40;;;;;;;17.42;62.10;96087.38;5047893;28;20229;-80
2022/06/14 03:35:32;;;;;;;4.25;3.40;;;;;;;17.36;62.41;96094.19;5052108;28;20210;-81
2022/06/14 03:38:04;;;;;;;4.13;3.10;;;;;;;17.23;63.42;96081.22;5037045;28;20205;-80
2022/06/14 03:40:33;;;;;;;3.63;3.30;;;;;;;17.25;63.15;96087.03;5035859;28;20701;-81
2022/06/14 03:43:01;;;;;;;3.58;3.13;;;;;;;17.20;63.42;96092.03;5038356;28;20673;-80
2022/06/14 03:45:34;;;;;;;4.57;3.13;;;;;;;17.24;63.39;96081.03;5056441;28;20233;-81
2022/06/14 03:48:00;;;;;;;5.07;3.55;;;;;;;17.29;63.47;96082.22;5054894;28;20612;-81
2022/06/14 03:50:34;;;;;;;4.63;3.45;;;;;;;17.27;63.76;96096.25;5055734;28;20267;-81
2022/06/14 03:53:23;;;;;;;4.55;3.25;;;;;;;17.35;64.14;96089.19;5045552;28;20713;-80
2022/06/14 03:56:02;;;;;;;4.57;3.28;;;;;;;17.41;63.64;96094.38;5035447;28;20268;-82
2022/06/14 03:58:48;;;;;;;5.22;3.42;;;;;;;17.57;63.09;96100.91;5035807;28;20197;-81
2022/06/14 04:01:20;;;;;;;3.80;3.40;;;;;;;17.72;62.37;96091.06;5050478;28;20574;-81
2022/06/14 04:04:26;;;;;;;3.95;3.22;;;;;;;17.72;62.92;96079.84;5054735;28;20229;-81
2022/06/14 04:07:11;;;;;;;5.47;3.17;;;;;;;17.73;62.70;96091.84;5037340;28;20190;-80
2022/06/14 04:09:45;;;;;;;4.72;3.38;;;;;;;17.70;62.74;96095.69;5041874;28;20252;-80
2022/06/14 04:12:21;;;;;;;7.20;4.38;;;;;;;17.83;62.38;96097.44;5034126;28;20229;-81
2022/06/14 04:14:57;;;;;;;5.57;4.60;;;;;;;17.91;62.07;96097.16;5049169;28;20197;-81
2022/06/14 04:17:37;;;;;;;5.93;3.80;;;;;;;17.96;62.03;96099.94;5047690;28;20189;-82
2022/06/14 04:20:09;;;;;;;8.77;4.38;;;;;;;17.97;62.08;96092.94;5051791;28;20201;-81
2022/06/14 04:22:42;;;;;;;5.38;3.78;;;;;;;17.97;62.04;96095.53;5047399;28;20234;-81
2022/06/14 04:25:13;;;;;;;5.80;3.20;;;;;;;18.02;62.25;96091.28;5039431;28;20197;-81
2022/06/14 04:27:48;;;;;;;4.25;3.10;;;;;;;18.03;62.30;96092.91;5055764;28;20202;-81
2022/06/14 04:30:19;;;;;;;4.03;3.50;;;;;;;18.11;61.46;96091.81;5046699;28;20226;-80
2022/06/14 04:32:53;;;;;;;4.65;3.70;;;;;;;18.11;61.98;96090.03;5035972;28;20233;-81
2022/06/14 04:35:23;;;;;;;6.18;3.70;;;;;;;18.21;61.36;96092.16;5043427;28;20194;-81
2022/06/14 04:37:55;;;;;;;6.93;3.67;;;;;;;18.23;61.95;96095.38;5048725;28;20800;-81
2022/06/14 04:40:26;;;;;;;5.10;3.70;;;;;;;18.25;61.49;96095.97;5032857;28;20296;-80
2022/06/14 04:43:01;;;;;;;6.72;4.13;;;;;;;18.40;61.25;96086.00;5027351;28;20245;-81
2022/06/14 04:45:36;;;;;;;6.13;4.20;;;;;;;18.55;60.36;96090.91;5044663;28;20259;-80
2022/06/14 04:48:08;;;;;;;4.72;3.42;;;;;;;18.68;60.12;96093.41;5053060;28;20200;-81
2022/06/14 04:50:39;;;;;;;5.40;3.60;;;;;;;18.75;60.07;96091.56;5045699;28;20807;-81
2022/06/14 04:53:11;;;;;;;8.20;3.85;;;;;;;18.84;60.50;96099.91;5041229;28;20225;-81
2022/06/14 04:55:43;;;;;;;4.30;3.80;;;;;;;18.91;60.09;96098.03;5046518;28;20247;-81
2022/06/14 04:58:17;;;;;;;6.20;3.55;;;;;;;19.00;59.44;96101.16;5034252;28;20813;-81
2022/06/14 05:00:49;;;;;;;7.63;3.50;;;;;;;19.16;62.20;96093.56;5038487;28;20220;-82
2022/06/14 05:03:21;;;;;;;6.47;3.50;;;;;;;19.32;59.37;96100.00;5053668;28;20229;-82
2022/06/14 05:05:52;;;;;;;3.47;2.92;;;;;;;19.40;58.08;96091.09;5041137;28;20198;-82
2022/06/14 05:08:24;;;;;;;6.72;3.50;;;;;;;19.44;58.31;96093.03;5034373;28;20385;-82
2022/06/14 05:10:57;;;;;;;5.22;3.38;;;;;;;19.53;57.98;96091.75;5040102;28;20784;-82
2022/06/14 05:13:28;;;;;;;5.07;3.38;;;;;;;19.49;59.11;96093.16;5053452;28;20261;-82
2022/06/14 05:15:59;;;;;;;7.97;4.68;;;;;;;19.56;59.55;96087.91;5053553;28;20208;-81
2022/06/14 05:18:30;;;;;;;9.38;3.40;;;;;;;19.45;54.79;96083.38;5058536;28;20201;-83
2022/06/14 05:21:02;;;;;;;4.63;3.42;;;;;;;19.49;54.58;96087.16;5060766;28;20294;-82
2022/06/14 05:23:34;;;;;;;6.95;2.83;;;;;;;19.46;51.77;96091.00;5053709;28;20585;-82
2022/06/14 05:26:10;;;;;;;4.90;2.80;;;;;;;19.47;51.37;96095.19;5054096;28;20202;-82
2022/06/14 05:28:45;;;;;;;4.80;2.83;;;;;;;19.52;48.85;96092.75;5055394;28;20208;-82
2022/06/14 05:31:23;;;;;;;4.15;3.13;;;;;;;19.43;46.84;96088.84;5040594;28;20226;-82
2022/06/14 05:33:58;;;;;;;12.23;5.78;;;;;;;19.39;46.41;96092.91;5035055;28;20794;-81
2022/06/14 05:36:29;;;;;;;5.00;2.90;;;;;;;19.41;46.20;96090.06;5033527;28;20201;-82
2022/06/14 05:39:00;;;;;;;4.80;3.30;;;;;;;19.45;47.90;96097.22;5034111;28;20212;-81
2022/06/14 05:41:33;;;;;;;4.47;2.47;;;;;;;19.49;46.28;96090.56;5034079;28;20226;-81
2022/06/14 05:44:06;;;;;;;3.67;2.70;;;;;;;19.54;45.73;96089.94;5033708;28;20317;-81
2022/06/14 05:46:38;;;;;;;3.75;2.80;;;;;;;19.60;47.68;96092.47;5034134;28;20268;-81
2022/06/14 05:49:07;;;;;;;2.85;2.53;;;;;;;19.71;46.34;96095.34;5032605;28;20212;-80
2022/06/14 05:51:40;;;;;;;4.18;2.45;;;;;;;19.77;47.28;96089.25;5032361;28;20316;-80
2022/06/14 05:54:14;;;;;;;3.92;2.65;;;;;;;19.90;48.43;96095.09;5031829;28;20655;-80
2022/06/14 05:56:46;;;;;;;5.80;3.15;;;;;;;19.93;46.40;96096.47;5032723;28;20207;-81
2022/06/14 05:59:19;;;;;;;7.38;3.10;;;;;;;19.95;45.90;96104.88;5033617;28;20198;-80
2022/06/14 06:01:56;;;;;;;6.55;2.60;;;;;;;19.99;45.75;96099.00;5033493;28;20280;-81
2022/06/14 06:04:27;;;;;;;4.50;2.70;;;;;;;20.02;45.44;96103.75;5036570;28;20665;-82
2022/06/14 06:07:00;;;;;;;4.75;2.70;;;;;;;20.02;44.82;96105.56;5032809;28;20209;-81
2022/06/14 06:09:33;;;;;;;4.75;2.33;;;;;;;20.05;44.51;96106.94;5033111;28;20202;-82
2022/06/14 06:12:08;;;;;;;3.97;2.50;;;;;;;19.97;43.53;96103.63;5030167;28;20645;-82
2022/06/14 06:14:40;;;;;;;5.50;2.80;;;;;;;19.97;43.26;96103.63;5032150;28;20263;-81
2022/06/14 06:17:15;;;;;;;5.15;2.70;;;;;;;19.97;44.74;96106.25;5032013;28;20293;-81
2022/06/14 06:19:48;;;;;;;3.92;2.88;;;;;;;20.08;44.21;96107.31;5034043;28;20256;-81
2022/06/14 06:22:20;;;;;;;4.15;2.63;;;;;;;20.02;42.80;96097.72;5030505;28;20233;-81
2022/06/14 06:24:50;;;;;;;3.45;2.20;;;;;;;20.10;43.20;96102.66;5031987;28;20206;-81
2022/06/14 06:27:18;;;;;;;3.58;2.50;;;;;;;20.20;43.63;96094.28;5031536;28;20237;-81
2022/06/14 06:29:53;;;;;;;2.90;2.70;;;;;;;20.31;44.16;96103.94;5032151;28;20206;-81
2022/06/14 06:32:21;;;;;;;5.07;2.80;;;;;;;20.22;41.53;96102.66;5034417;28;20301;-80
2022/06/14 06:34:50;;;;;;;3.38;2.75;;;;;;;20.12;40.94;96107.66;5035650;28;20206;-82
2022/06/14 06:37:22;;;;;;;4.93;2.65;;;;;;;20.10;41.85;96107.88;5036306;28;20210;-81
2022/06/14 06:39:51;;;;;;;3.10;2.53;;;;;;;20.13;41.63;96112.66;5051515;28;20201;-81
2022/06/14 06:42:29;;;;;;;6.53;2.70;;;;;;;20.14;41.06;96111.66;5054035;28;20306;-81
2022/06/14 06:45:03;;;;;;;2.83;2.63;;;;;;;20.19;42.20;96103.94;5046200;28;20285;-81
2022/06/14 06:47:32;;;;;;;4.13;2.50;;;;;;;20.25;41.76;96105.63;5054177;28;20203;-82
2022/06/14 06:50:21;;;;;;;5.75;2.72;;;;;;;20.29;41.57;96098.94;5042023;28;20446;-81
2022/06/14 06:52:56;;;;;;;4.30;2.60;;;;;;;20.37;40.81;96102.31;5047090;28;20229;-80
2022/06/14 06:55:32;;;;;;;4.35;2.50;;;;;;;20.51;40.80;96095.81;5035389;28;20201;-81
2022/06/14 06:58:01;;;;;;;2.78;2.58;;;;;;;20.59;41.36;96103.34;5051965;28;20197;-81
2022/06/14 07:00:31;;;;;;;3.08;2.58;;;;;;;20.50;40.07;96099.47;5042977;28;20315;-81
2022/06/14 07:03:04;;;;;;;5.35;2.45;;;;;;;20.51;39.32;96101.06;5048496;28;20230;-82
2022/06/14 07:05:30;;;;;;;3.15;2.60;;;;;;;20.52;39.42;96095.59;5056055;28;20615;-81
2022/06/14 07:08:02;;;;;;;4.03;2.60;;;;;;;20.53;42.95;96094.59;5054406;28;20240;-81
2022/06/14 07:10:35;;;;;;;4.07;2.33;;;;;;;20.49;38.77;96100.47;5039958;28;20202;-82
2022/06/14 07:13:05;;;;;;;3.28;2.53;;;;;;;20.32;38.63;96102.94;5045972;28;20236;-80
2022/06/14 07:15:38;;;;;;;4.55;2.90;;;;;;;20.45;39.87;96100.13;5043073;28;20256;-78
2022/06/14 07:18:14;;;;;;;5.78;2.60;;;;;;;20.34;40.11;96113.97;5059475;28;20201;-78
2022/06/14 07:20:50;;;;;;;4.43;2.65;;;;;;;20.41;40.30;96100.81;5049272;28;20247;-78
2022/06/14 07:23:23;;;;;;;3.42;2.50;;;;;;;20.60;40.57;96100.47;5050374;28;20291;-78
2022/06/14 07:25:58;;;;;;;5.80;2.50;;;;;;;20.80;41.24;96101.97;5059998;28;20275;-79
2022/06/14 07:28:31;;;;;;;2.72;2.45;;;;;;;20.96;40.57;96091.63;5048575;28;20193;-77
2022/06/14 07:31:03;;;;;;;4.03;2.35;;;;;;;21.09;39.70;96105.50;5060238;28;20226;-78
2022/06/14 07:33:31;;;;;;;6.75;2.78;;;;;;;21.09;40.57;96102.88;5048795;28;20253;-78
2022/06/14 07:36:02;;;;;;;3.13;2.33;;;;;;;21.21;40.93;96101.06;5058164;28;20601;-79
2022/06/14 07:38:37;;;;;;;4.32;2.42;;;;;;;21.26;39.93;96107.22;5042563;28;20206;-79
2022/06/14 07:41:14;;;;;;;4.93;2.60;;;;;;;21.26;39.18;96095.94;5050304;28;20221;-78
2022/06/14 07:43:50;;;;;;;5.35;2.25;;;;;;;21.35;40.13;96100.59;5047179;28;20729;-77
2022/06/14 07:46:26;;;;;;;3.28;2.00;;;;;;;21.45;39.64;96101.81;5041021;28;20233;-79
2022/06/14 07:48:58;;;;;;;5.75;2.50;;;;;;;21.45;39.56;96086.09;5042654;28;20198;-78
2022/06/14 07:51:34;;;;;;;3.42;2.40;;;;;;;21.58;40.36;96089.25;5053372;28;20225;-79
2022/06/14 07:54:04;;;;;;;2.95;2.20;;;;;;;21.63;40.51;96083.31;5045526;28;20577;-80
2022/06/14 07:56:36;;;;;;;5.30;2.38;;;;;;;21.73;39.73;96087.97;5045687;28;20209;-80
2022/06/14 07:59:07;;;;;;;4.90;2.40;;;;;;;21.82;39.44;96084.72;5045256;28;20205;-81
2022/06/14 08:01:42;;;;;;;5.40;2.30;;;;;;;21.95;39.46;96083.63;5041019;28;20802;-81
2022/06/14 08:04:15;;;;;;;3.65;2.50;;;;;;;22.14;39.92;96085.03;5053086;28;20236;-81
2022/06/14 08:06:46;;;;;;;3.55;2.30;;;;;;;22.17;38.77;96081.16;5055600;28;20267;-78
2022/06/14 08:09:18;;;;;;;3.25;2.20;;;;;;;22.19;38.95;96084.34;5051438;28;20225;-78
2022/06/14 08:11:50;;;;;;;5.88;2.60;;;;;;;22.20;38.59;96093.81;5040222;28;20222;-78
2022/06/14 08:14:23;;;;;;;3.42;2.65;;;;;;;22.12;39.02;96083.72;5075828;28;20263;-78
2022/06/14 08:16:52;;;;;;;4.00;2.30;;;;;;;22.25;38.77;96086.03;5069467;28;20334;-79
2022/06/14 08:19:24;;;;;;;4.78;2.75;;;;;;;22.47;39.22;96088.75;5069168;28;20225;-77
2022/06/14 08:21:56;;;;;;;2.97;2.42;;;;;;;22.66;37.57;96085.63;5069901;28;20282;-78
2022/06/14 08:24:26;;;;;;;4.40;2.50;;;;;;;22.81;38.02;96089.53;5045205;28;20228;-79
2022/06/14 08:27:01;;;;;;;5.13;2.35;;;;;;;22.95;38.07;96080.28;5051736;28;20202;-79
2022/06/14 08:29:32;;;;;;;4.43;2.42;;;;;;;22.97;37.35;96091.34;5053544;28;20220;-78
2022/06/14 08:32:06;;;;;;;4.38;2.53;;;;;;;23.16;38.64;96084.78;5054440;28;20561;-77
2022/06/14 08:34:36;;;;;;;4.70;2.75;;;;;;;23.23;37.90;96085.41;5044862;28;20202;-78
2022/06/14 08:37:10;;;;;;;4.32;2.70;;;;;;;23.22;36.86;96075.94;5049575;28;20197;-78
2022/06/14 08:39:40;;;;;;;4.00;2.38;;;;;;;23.07;37.04;96081.78;5040254;28;20256;-78
2022/06/14 08:42:15;;;;;;;5.20;2.42;;;;;;;23.28;38.17;96082.03;5057300;28;20241;-78
2022/06/14 08:44:48;;;;;;;3.53;2.35;;;;;;;23.44;36.66;96081.19;5041486;28;20201;-78
2022/06/14 08:47:39;;;;;;;2.83;2.17;;;;;;;23.33;36.79;96080.25;5047340;28;20194;-78
2022/06/14 08:50:15;;;;;;;5.00;2.65;;;;;;;23.30;36.26;96074.69;5057148;28;20213;-78
2022/06/14 08:53:15;;;;;;;4.40;2.58;;;;;;;23.52;36.78;96074.72;5043961;28;20221;-77
2022/06/14 08:56:00;;;;;;;5.93;2.88;;;;;;;23.73;35.48;96074.69;5052044;28;20205;-77
2022/06/14 08:58:51;;;;;;;4.13;2.70;;;;;;;23.67;35.28;96075.69;5049630;28;20210;-78
2022/06/14 09:01:26;;;;;;;5.55;2.50;;;;;;;23.81;36.24;96076.09;5052527;28;20224;-79
2022/06/14 09:04:17;;;;;;;4.88;2.47;;;;;;;24.03;37.34;96070.78;5057464;28;20231;-79
2022/06/14 09:07:02;;;;;;;3.38;2.22;;;;;;;24.05;36.06;96066.84;5041801;28;20340;-78
2022/06/14 09:09:51;;;;;;;5.97;2.60;;;;;;;23.99;34.56;96065.22;5044682;28;20295;-79
2022/06/14 09:12:37;;;;;;;4.10;2.50;;;;;;;24.15;35.24;96063.53;5042299;28;20236;-78
2022/06/14 09:15:51;;;;;;;3.05;2.40;;;;;;;24.37;36.42;96064.28;5050314;28;20206;-78
2022/06/14 09:18:38;;;;;;;4.63;2.50;;;;;;;24.57;34.92;96079.44;5031587;28;20205;-79
2022/06/14 09:21:16;;;;;;;3.97;2.53;;;;;;;24.64;35.87;96072.09;5048256;28;20622;-78
2022/06/14 09:23:47;;;;;;;3.42;2.42;;;;;;;24.89;35.65;96066.19;5054044;28;20221;-79
2022/06/14 09:26:39;;;;;;;4.32;2.92;;;;;;;25.08;34.98;96069.22;5045892;28;20202;-79
2022/06/14 09:29:35;;;;;;;3.67;2.50;;;;;;;25.16;34.27;96058.22;5050272;28;20186;-79
2022/06/14 09:32:27;;;;;;;5.57;2.55;;;;;;;25.11;35.80;96060.81;5057608;28;20221;-79
2022/06/14 09:35:12;;;;;;;5.82;2.40;;;;;;;25.12;35.31;96062.41;5048023;28;20205;-80
2022/06/14 09:37:57;;;;;;;5.43;2.60;;;;;;;24.90;35.79;96059.88;5049106;28;20194;-79
2022/06/14 09:40:52;;;;;;;4.15;2.92;;;;;;;25.20;36.37;96064.56;5045510;28;20201;-78
2022/06/14 09:43:52;;;;;;;3.60;2.50;;;;;;;25.20;35.47;96056.66;5042714;28;20249;-79
2022/06/14 09:46:45;;;;;;;5.18;2.95;;;;;;;25.29;35.79;96057.72;5043135;28;20189;-78
2022/06/14 09:49:47;;;;;;;4.18;3.03;;;;;;;25.17;35.35;96059.81;5043223;28;20662;-79
2022/06/14 09:52:56;;;;;;;3.75;2.70;;;;;;;24.99;37.09;96063.66;5049098;28;20323;-79
2022/06/14 09:55:52;;;;;;;5.22;2.60;;;;;;;24.88;35.18;96055.91;5041523;28;20217;-79
2022/06/14 09:58:36;;;;;;;9.27;3.10;;;;;;;24.57;34.81;96057.56;5045533;28;20198;-78
2022/06/14 10:01:13;;;;;;;5.18;3.17;;;;;;;24.50;36.20;96060.41;5048875;28;20215;-79
2022/06/14 10:03:59;;;;;;;5.63;2.75;;;;;;;24.81;36.36;96058.78;5053224;28;20788;-78
2022/06/14 10:06:55;;;;;;;3.50;2.78;;;;;;;25.30;36.36;96058.53;5046408;28;20189;-79
2022/06/14 10:09:37;;;;;;;4.93;3.03;;;;;;;25.57;35.17;96048.63;5048438;28;20198;-78
2022/06/14 10:12:18;;;;;;;6.07;3.50;;;;;;;25.96;35.22;96045.56;5058306;28;20275;-79
2022/06/14 10:14:54;;;;;;;5.88;2.47;;;;;;;26.02;34.52;96047.13;5055459;28;20207;-79
2022/06/14 10:17:39;;;;;;;4.72;3.45;;;;;;;26.14;35.34;96042.41;5042459;28;20189;-79
2022/06/14 10:20:33;;;;;;;2.63;2.38;;;;;;;26.09;34.96;96047.69;5039816;28;20252;-78
2022/06/14 10:23:13;;;;;;;4.63;2.78;;;;;;;26.20;34.92;96045.81;5039934;28;20241;-78
2022/06/14 10:28:41;;;;;;;3.60;2.90;;;;;;;26.26;32.25;96039.50;5054619;28;20193;-79
2022/06/14 10:31:15;;;;;;;5.82;3.00;;;;;;;26.26;32.18;96044.78;5053889;28;20247;-78
2022/06/14 10:33:50;;;;;;;6.43;2.83;;;;;;;26.19;33.62;96038.97;5046530;28;20226;-78
2022/06/14 10:36:50;;;;;;;5.53;2.78;;;;;;;26.08;34.22;96043.44;5039439;28;20202;-79
2022/06/14 10:39:30;;;;;;;5.47;3.10;;;;;;;25.89;33.52;96042.38;5038902;28;20205;-78
2022/06/14 10:42:08;;;;;;;4.22;3.17;;;;;;;25.69;32.75;96045.75;5058305;28;20720;-78
2022/06/14 10:44:42;;;;;;;6.35;3.30;;;;;;;25.90;34.45;96044.75;5057445;28;20209;-79
2022/06/14 10:47:16;;;;;;;5.13;3.15;;;;;;;26.29;34.03;96044.25;5059427;28;20228;-79
2022/06/14 10:50:15;;;;;;;3.78;3.05;;;;;;;26.09;33.22;96045.03;5059543;28;20197;-79
2022/06/14 10:53:07;;;;;;;4.40;2.88;;;;;;;26.14;31.73;96037.13;5046695;28;20261;-79
2022/06/14 10:55:46;;;;;;;4.20;2.72;;;;;;;26.32;32.68;96030.56;5063375;28;20212;-79
2022/06/14 10:58:41;;;;;;;5.72;2.80;;;;;;;26.09;32.89;96034.47;5060533;28;20572;-79
2022/06/14 11:01:21;;;;;;;5.85;2.90;;;;;;;26.19;33.26;96033.69;5057473;28;20237;-79
2022/06/14 11:03:58;;;;;;;5.97;2.90;;;;;;;26.28;33.03;96030.25;5062591;28;20232;-79
2022/06/14 11:06:51;;;;;;;2.92;2.67;;;;;;;26.60;34.03;96026.56;5063173;28;20201;-78
2022/06/14 11:09:32;;;;;;;4.10;3.08;;;;;;;26.87;32.05;96027.03;5063174;28;20201;-78
2022/06/14 11:12:21;;;;;;;5.22;2.72;;;;;;;26.69;32.74;96028.41;5058175;28;20213;-79
2022/06/14 11:15:01;;;;;;;5.25;2.60;;;;;;;26.73;32.80;96028.66;5042979;28;20199;-79
2022/06/14 11:17:48;;;;;;;4.95;2.60;;;;;;;26.86;32.42;96027.31;5058452;28;20688;-79
2022/06/14 11:20:28;;;;;;;5.28;2.70;;;;;;;26.88;30.53;96018.06;5049613;28;20202;-80
2022/06/14 11:22:59;;;;;;;5.78;2.70;;;;;;;26.90;31.32;96017.78;5051203;28;20233;-79
2022/06/14 11:25:40;;;;;;;4.25;2.50;;;;;;;26.93;32.71;96012.75;5051576;28;20202;-79
2022/06/14 11:28:16;;;;;;;5.38;3.00;;;;;;;26.94;32.43;96006.41;5069286;28;20201;-79
2022/06/14 11:30:51;;;;;;;6.43;3.03;;;;;;;27.01;32.24;96011.41;5058031;28;20221;-79
2022/06/14 11:33:29;;;;;;;4.80;2.72;;;;;;;27.12;32.63;96011.13;5047948;28;20221;-79
2022/06/14 11:36:09;;;;;;;4.88;2.90;;;;;;;27.18;31.96;96002.09;5047720;28;20239;-79
2022/06/14 11:38:57;;;;;;;4.57;2.60;;;;;;;27.22;32.71;96004.22;5048357;28;20739;-79
2022/06/14 11:41:27;;;;;;;5.72;2.92;;;;;;;27.18;32.14;95998.66;5047085;28;20226;-78
2022/06/14 11:44:06;;;;;;;3.22;2.42;;;;;;;27.18;31.19;96001.31;5047948;28;20234;-79
2022/06/14 11:46:43;;;;;;;3.17;2.55;;;;;;;27.16;31.72;95998.94;5048723;28;20194;-79
2022/06/14 11:49:19;;;;;;;5.63;2.50;;;;;;;27.01;31.42;95995.56;5049819;28;20262;-79
2022/06/14 11:51:54;;;;;;;4.18;2.80;;;;;;;26.82;31.50;95992.69;5047514;28;20221;-78
2022/06/14 11:54:25;;;;;;;4.43;2.90;;;;;;;26.73;33.24;96000.41;5047562;28;20283;-79
2022/06/14 11:57:06;;;;;;;4.82;2.53;;;;;;;26.81;32.71;95996.38;5047127;28;20697;-79
2022/06/14 12:00:09;;;;;;;5.35;2.63;;;;;;;26.93;32.03;95990.81;5047620;28;20198;-79
2022/06/14 12:02:43;;;;;;;3.58;2.70;;;;;;;27.14;31.86;95984.41;5046723;28;20244;-78
2022/06/14 12:05:22;;;;;;;3.88;2.78;;;;;;;27.24;31.79;95984.38;5065830;28;20201;-79
2022/06/14 12:07:54;;;;;;;4.72;3.03;;;;;;;27.23;32.55;95979.34;5068551;28;20228;-78
2022/06/14 12:10:42;;;;;;;3.42;2.58;;;;;;;27.11;31.45;95977.81;5067364;28;20212;-78
2022/06/14 12:13:21;;;;;;;3.47;2.60;;;;;;;27.11;31.88;95974.38;5065249;28;20230;-79
2022/06/14 12:15:53;;;;;;;3.05;2.33;;;;;;;27.24;33.74;95978.28;5067328;28;20483;-79
2022/06/14 12:18:24;;;;;;;4.40;2.42;;;;;;;27.22;32.28;95978.56;5067751;28;20208;-79
2022/06/14 12:21:03;;;;;;;5.93;2.95;;;;;;;26.78;31.05;95973.94;5066215;28;20221;-78
2022/06/14 12:23:34;;;;;;;3.67;2.63;;;;;;;26.79;30.84;95974.72;5067018;28;20603;-78